Time;durP1;ratioP1;P1;durP2;ratioP2;P2;SDS_P1;SDS_P2;PMS_P1;PMS_P2;Temp;Humidity;BMP_temperature;BMP_pressure;BME280_temperature;BME280_humidity;BME280_pressure;Samples;Min_cycle;Max_cycle;Signal;HPM_P1;HPM_P2
2023/04/28 00:04:40;;;;;;;6.77;4.50;;;13.90;28.50;;;;;;10458490;28;20235;-69
2023/04/28 00:09:43;;;;;;;4.10;3.70;;;13.90;28.20;;;;;;10454832;28;20228;-69
2023/04/28 00:14:48;;;;;;;4.27;3.90;;;14.00;28.30;;;;;;10462382;28;20239;-69
2023/04/28 00:19:51;;;;;;;4.10;3.80;;;14.00;28.50;;;;;;10460216;28;20224;-69
2023/04/28 00:24:54;;;;;;;4.70;4.30;;;14.00;28.40;;;;;;10463784;28;20224;-69
2023/04/28 00:30:00;;;;;;;4.60;4.20;;;14.00;28.40;;;;;;10459104;28;20224;-69
2023/04/28 00:35:03;;;;;;;6.07;4.60;;;14.00;28.60;;;;;;10462039;28;20229;-69
2023/04/28 00:40:07;;;;;;;5.37;4.87;;;14.00;28.50;;;;;;10459278;28;20256;-69
2023/04/28 00:45:12;;;;;;;4.63;4.23;;;14.10;28.50;;;;;;10456673;28;20235;-69
2023/04/28 00:50:17;;;;;;;5.50;5.00;;;14.00;28.50;;;;;;10459253;28;20232;-69
2023/04/28 00:55:20;;;;;;;4.73;4.30;;;14.00;28.80;;;;;;10452123;28;21208;-69
2023/04/28 01:00:25;;;;;;;4.77;4.00;;;14.00;28.70;;;;;;10453275;28;20232;-69
2023/04/28 01:05:29;;;;;;;4.63;4.23;;;14.00;28.80;;;;;;10457016;28;20787;-69
2023/04/28 01:10:32;;;;;;;5.13;4.73;;;14.00;28.70;;;;;;10459125;28;20228;-69
2023/04/28 01:15:37;;;;;;;6.00;4.83;;;14.00;28.70;;;;;;10459386;28;20233;-69
2023/04/28 01:20:40;;;;;;;4.70;4.30;;;14.00;28.90;;;;;;10460133;28;20232;-70
2023/04/28 01:25:45;;;;;;;4.47;3.80;;;13.90;28.70;;;;;;10466280;28;21101;-70
2023/04/28 01:30:48;;;;;;;4.97;4.43;;;13.90;29.00;;;;;;10465345;28;20232;-70
2023/04/28 01:35:51;;;;;;;4.37;3.93;;;13.90;29.00;;;;;;10466593;28;20228;-70
2023/04/28 01:40:57;;;;;;;5.10;4.60;;;13.80;28.90;;;;;;10464366;28;20267;-70
2023/04/28 01:46:00;;;;;;;5.03;4.53;;;13.80;29.30;;;;;;10459623;28;20232;-70
2023/04/28 01:51:03;;;;;;;5.87;4.83;;;13.80;29.00;;;;;;10462476;28;20225;-70
2023/04/28 01:56:08;;;;;;;5.00;4.60;;;13.70;29.20;;;;;;10462905;28;20240;-70
2023/04/28 02:01:11;;;;;;;6.07;4.83;;;13.70;29.50;;;;;;10465004;28;20237;-70
2023/04/28 02:06:14;;;;;;;6.37;4.83;;;13.70;29.20;;;;;;10465703;28;20232;-70
2023/04/28 02:11:19;;;;;;;4.30;3.80;;;13.70;29.40;;;;;;10464245;28;20712;-70
2023/04/28 02:16:23;;;;;;;3.77;3.37;;;13.70;29.70;;;;;;10465522;28;20232;-70
2023/04/28 02:21:26;;;;;;;4.00;3.70;;;13.70;29.50;;;;;;10463058;28;20599;-70
2023/04/28 02:26:31;;;;;;;3.70;3.40;;;13.70;29.60;;;;;;10461349;28;20736;-70
2023/04/28 02:31:34;;;;;;;4.53;4.13;;;13.70;29.90;;;;;;10460617;28;20221;-70
2023/04/28 02:36:38;;;;;;;4.27;3.90;;;13.70;29.70;;;;;;10462688;28;20319;-70
2023/04/28 02:41:43;;;;;;;5.07;4.60;;;13.80;29.80;;;;;;10463639;28;20228;-70
2023/04/28 02:46:46;;;;;;;5.20;4.70;;;13.80;30.00;;;;;;10459545;28;20224;-70
2023/04/28 02:51:49;;;;;;;5.77;5.20;;;13.80;29.80;;;;;;10470461;28;20238;-70
2023/04/28 02:56:54;;;;;;;5.50;4.57;;;13.70;29.70;;;;;;10465002;28;20232;-72
2023/04/28 03:01:57;;;;;;;6.13;4.67;;;13.70;30.00;;;;;;10461038;28;20239;-70
2023/04/28 03:07:00;;;;;;;6.03;4.47;;;13.60;29.90;;;;;;10466234;28;20233;-70
2023/04/28 03:12:05;;;;;;;5.43;4.20;;;13.50;30.00;;;;;;10461979;28;21183;-70
2023/04/28 03:17:08;;;;;;;5.23;4.83;;;13.60;30.80;;;;;;10458713;28;20225;-70
2023/04/28 03:22:11;;;;;;;6.93;4.80;;;13.60;30.40;;;;;;10458959;28;20229;-70
2023/04/28 03:27:15;;;;;;;7.10;4.53;;;13.70;30.90;;;;;;10462790;28;20229;-69
2023/04/28 03:32:18;;;;;;;5.20;4.80;;;13.70;31.00;;;;;;10464535;28;20736;-70
2023/04/28 03:37:22;;;;;;;5.77;4.50;;;13.70;30.60;;;;;;10460068;28;20281;-70
2023/04/28 03:42:26;;;;;;;5.07;4.30;;;13.70;31.00;;;;;;10460930;28;20232;-70
2023/04/28 03:47:29;;;;;;;5.87;4.80;;;13.60;30.90;;;;;;10464676;28;20248;-70
2023/04/28 03:52:33;;;;;;;5.27;4.50;;;13.60;30.90;;;;;;10459198;28;20225;-70
2023/04/28 03:57:37;;;;;;;5.20;4.70;;;13.50;30.80;;;;;;10460365;28;20232;-70
2023/04/28 04:02:40;;;;;;;7.60;5.97;;;13.50;30.80;;;;;;10461360;28;20770;-70
2023/04/28 04:07:43;;;;;;;7.77;6.97;;;13.40;30.70;;;;;;10462282;28;20228;-70
2023/04/28 04:12:48;;;;;;;5.47;4.97;;;13.40;30.70;;;;;;10457924;28;20232;-70
2023/04/28 04:17:51;;;;;;;4.90;4.50;;;13.30;30.90;;;;;;10459178;28;20247;-70
2023/04/28 04:22:54;;;;;;;5.20;4.33;;;13.30;30.80;;;;;;10457361;28;20229;-70
2023/04/28 04:27:59;;;;;;;4.90;4.40;;;13.30;31.10;;;;;;10459707;28;20236;-70
2023/04/28 04:33:02;;;;;;;4.93;4.53;;;13.30;31.80;;;;;;10453898;28;20830;-69
2023/04/28 04:38:06;;;;;;;4.60;4.20;;;13.30;31.30;;;;;;10461664;28;20274;-70
2023/04/28 04:43:10;;;;;;;4.80;4.30;;;13.30;31.30;;;;;;10454431;28;20237;-72
2023/04/28 04:48:13;;;;;;;10.30;9.30;;;13.40;31.90;;;;;;10457587;28;20240;-70
2023/04/28 04:53:17;;;;;;;11.50;10.40;;;13.40;32.30;;;;;;10456295;28;20235;-70
2023/04/28 04:58:21;;;;;;;5.93;5.43;;;13.50;31.60;;;;;;10456595;28;20358;-69
2023/04/28 05:03:24;;;;;;;5.23;4.70;;;13.50;32.20;;;;;;10457172;28;20232;-69
2023/04/28 05:08:28;;;;;;;5.37;4.80;;;13.50;31.90;;;;;;10453631;28;20301;-70
2023/04/28 05:13:32;;;;;;;5.00;4.40;;;13.50;32.20;;;;;;10454102;28;20235;-70
2023/04/28 05:18:35;;;;;;;14.23;9.07;;;13.50;33.00;;;;;;10450556;28;20244;-70
2023/04/28 05:23:39;;;;;;;8.23;6.97;;;13.50;32.70;;;;;;10454919;28;20224;-70
2023/04/28 05:28:43;;;;;;;5.30;4.80;;;13.50;32.90;;;;;;10453268;28;20240;-70
2023/04/28 05:33:46;;;;;;;4.37;3.97;;;13.40;33.60;;;;;;10451928;28;20225;-70
2023/04/28 05:38:49;;;;;;;4.90;4.40;;;13.50;33.30;;;;;;10458703;28;20228;-70
2023/04/28 05:43:54;;;;;;;4.80;4.30;;;13.50;33.40;;;;;;10452564;28;20736;-70
2023/04/28 05:48:57;;;;;;;4.83;4.43;;;13.50;34.10;;;;;;10455456;28;20244;-70
2023/04/28 05:54:00;;;;;;;4.40;4.00;;;13.50;33.80;;;;;;10456393;28;20224;-70
2023/04/28 05:59:05;;;;;;;4.70;4.30;;;13.40;34.00;;;;;;10454785;28;20228;-70
2023/04/28 06:04:08;;;;;;;4.50;4.10;;;13.50;34.90;;;;;;10454727;28;20236;-70
2023/04/28 06:09:11;;;;;;;5.03;4.23;;;13.50;34.30;;;;;;10462577;28;20255;-70
2023/04/28 06:14:17;;;;;;;4.97;4.40;;;13.50;34.50;;;;;;10464417;28;20235;-70
2023/04/28 06:19:20;;;;;;;4.40;4.00;;;13.50;35.50;;;;;;10462416;28;20228;-70
2023/04/28 06:24:24;;;;;;;4.70;4.20;;;13.50;34.70;;;;;;10463572;28;20228;-70
2023/04/28 06:29:28;;;;;;;4.67;4.10;;;13.60;35.00;;;;;;10460528;28;20648;-70
2023/04/28 06:34:31;;;;;;;3.97;3.60;;;13.60;35.80;;;;;;10478743;28;20586;-68
2023/04/28 06:39:35;;;;;;;4.73;4.33;;;13.60;35.20;;;;;;10489179;28;20228;-71
2023/04/28 06:44:39;;;;;;;4.13;3.73;;;13.70;35.50;;;;;;10483407;28;20232;-69
2023/04/28 06:49:44;;;;;;;3.77;3.47;;;13.70;36.20;;;;;;10490047;28;20235;-69
2023/04/28 06:54:47;;;;;;;4.07;3.67;;;13.70;35.80;;;;;;10470296;28;20229;-69
2023/04/28 06:59:52;;;;;;;3.60;3.30;;;13.70;35.90;;;;;;10458685;28;20228;-69
2023/04/28 07:04:55;;;;;;;3.33;3.03;;;13.70;36.80;;;;;;10460742;28;20593;-69
2023/04/28 07:09:59;;;;;;;3.30;3.03;;;13.70;36.20;;;;;;10461070;28;20262;-69
2023/04/28 07:15:04;;;;;;;4.67;3.27;;;13.70;36.50;;;;;;10459603;28;20229;-68
2023/04/28 07:20:08;;;;;;;4.67;3.50;;;13.80;37.30;;;;;;10458630;28;20692;-69
2023/04/28 07:25:11;;;;;;;4.77;3.70;;;13.80;37.10;;;;;;10460007;28;20240;-69
2023/04/28 07:30:16;;;;;;;3.83;3.07;;;13.90;36.90;;;;;;10462931;28;20228;-69
2023/04/28 07:35:31;;;;;;;3.47;3.17;;;13.90;37.60;;;;;;10457810;28;20282;-69
2023/04/28 07:40:34;;;;;;;3.50;3.20;;;14.00;37.20;;;;;;10459060;28;20232;-69
2023/04/28 07:45:40;;;;;;;3.60;3.30;;;14.00;37.20;;;;;;10456673;28;20227;-69
2023/04/28 07:50:43;;;;;;;3.60;3.30;;;14.00;38.30;;;;;;10456894;28;20304;-69
2023/04/28 07:55:46;;;;;;;3.33;3.03;;;14.00;37.40;;;;;;10459682;28;20894;-69
2023/04/28 08:00:51;;;;;;;4.60;3.20;;;14.00;37.40;;;;;;10462172;28;20228;-69
2023/04/28 08:05:54;;;;;;;3.30;3.00;;;14.10;38.60;;;;;;10459783;28;20233;-69
2023/04/28 08:10:58;;;;;;;2.60;2.40;;;14.10;38.00;;;;;;10458463;28;20298;-69
2023/04/28 08:16:02;;;;;;;3.33;2.60;;;14.20;38.10;;;;;;10462426;28;20224;-69
2023/04/28 08:21:05;;;;;;;3.60;3.30;;;14.30;38.90;;;;;;10456846;28;20231;-69
2023/04/28 08:26:08;;;;;;;4.63;4.23;;;14.40;38.10;;;;;;10462242;28;20286;-69
2023/04/28 08:31:13;;;;;;;3.87;3.37;;;14.40;38.10;;;;;;10457703;28;20236;-69
2023/04/28 08:36:16;;;;;;;4.30;4.00;;;14.50;39.10;;;;;;10457330;28;20228;-69
2023/04/28 08:41:20;;;;;;;3.53;3.20;;;14.50;39.30;;;;;;10459071;28;20232;-72
2023/04/28 08:46:27;;;;;;;3.80;3.40;;;14.60;38.70;;;;;;10461641;28;20238;-69
2023/04/28 08:51:35;;;;;;;3.93;2.43;;;14.60;40.40;;;;;;10461359;28;20220;-72
2023/04/28 08:56:39;;;;;;;3.10;2.80;;;14.70;40.00;;;;;;10458063;28;20668;-70
2023/04/28 09:01:44;;;;;;;3.47;3.17;;;14.80;38.90;;;;;;10456170;28;20672;-69
2023/04/28 09:06:47;;;;;;;2.50;2.33;;;14.80;39.60;;;;;;10459409;28;20245;-69
2023/04/28 09:11:55;;;;;;;2.57;2.33;;;14.90;39.20;;;;;;10453302;28;20683;-69
2023/04/28 09:17:00;;;;;;;2.90;2.60;;;15.00;40.70;;;;;;10457177;28;20640;-72
2023/04/28 09:22:03;;;;;;;3.20;2.60;;;15.00;39.80;;;;;;10456250;28;20235;-69
2023/04/28 09:27:28;;;;;;;3.43;3.10;;;15.10;39.10;;;;;;10458210;28;20277;-69
2023/04/28 09:32:32;;;;;;;3.50;3.20;;;15.20;39.60;;;;;;10457519;28;20231;-69
2023/04/28 09:37:36;;;;;;;2.60;2.40;;;15.20;39.70;;;;;;10454769;28;20235;-72
2023/04/28 09:42:41;;;;;;;2.77;2.53;;;15.20;39.30;;;;;;10462706;28;20224;-69
2023/04/28 09:47:47;;;;;;;2.60;2.40;;;15.10;39.70;;;;;;10465704;28;20236;-71
2023/04/28 09:52:57;;;;;;;2.67;2.47;;;15.20;40.20;;;;;;10469997;28;20224;-69
2023/04/28 09:58:04;;;;;;;2.73;2.53;;;15.20;41.30;;;;;;10462629;28;20243;-69
2023/04/28 10:03:10;;;;;;;2.70;2.43;;;15.20;40.10;;;;;;10458467;28;20236;-69
2023/04/28 10:08:13;;;;;;;2.60;2.40;;;15.20;40.40;;;;;;10463653;28;20255;-69
2023/04/28 10:13:18;;;;;;;2.60;2.23;;;15.30;39.70;;;;;;10465654;28;20224;-71
2023/04/28 10:18:23;;;;;;;2.50;2.30;;;15.30;40.10;;;;;;10461919;28;20231;-69
2023/04/28 10:23:57;;;;;;;2.63;2.30;;;15.30;40.60;;;;;;10464225;28;20320;-69
2023/04/28 10:29:00;;;;;;;2.60;2.30;;;15.30;41.60;;;;;;10458624;28;20236;-69
2023/04/28 10:34:24;;;;;;;2.67;2.20;;;15.30;40.20;;;;;;10464112;28;20232;-69
2023/04/28 10:39:27;;;;;;;2.90;2.70;;;15.30;42.20;;;;;;10461591;28;20240;-69
2023/04/28 10:44:43;;;;;;;3.00;2.80;;;15.30;40.40;;;;;;10460733;28;20318;-69
2023/04/28 10:50:08;;;;;;;2.80;2.60;;;15.30;42.60;;;;;;10460940;28;20216;-69
2023/04/28 10:55:31;;;;;;;3.17;2.93;;;15.30;42.60;;;;;;10461391;28;20627;-69
2023/04/28 11:00:35;;;;;;;2.20;2.00;;;15.40;42.90;;;;;;10460976;28;20619;-69
2023/04/28 11:05:39;;;;;;;1.90;1.80;;;15.40;40.90;;;;;;10466598;28;20241;-69
2023/04/28 11:11:13;;;;;;;1.57;1.43;;;15.50;41.80;;;;;;10461312;28;20323;-69
2023/04/28 11:16:19;;;;;;;2.60;1.60;;;15.50;42.40;;;;;;10461722;28;20323;-69
2023/04/28 11:21:26;;;;;;;3.03;2.00;;;15.50;41.80;;;;;;10456816;28;20216;-69
2023/04/28 11:26:31;;;;;;;2.00;1.80;;;15.50;42.40;;;;;;10459433;28;20256;-69
2023/04/28 11:31:34;;;;;;;1.50;1.40;;;15.50;41.70;;;;;;10458365;28;20212;-71
2023/04/28 11:36:40;;;;;;;2.80;1.93;;;15.50;42.00;;;;;;10462879;28;20316;-69
2023/04/28 11:41:44;;;;;;;1.60;1.50;;;15.60;43.10;;;;;;10458413;28;20282;-69
2023/04/28 11:46:52;;;;;;;2.60;2.40;;;15.60;42.60;;;;;;10455307;28;20232;-69
2023/04/28 11:51:59;;;;;;;2.37;2.27;;;15.70;42.70;;;;;;10460035;28;20861;-69
2023/04/28 11:57:03;;;;;;;1.87;1.77;;;15.70;43.40;;;;;;10462243;28;20229;-70
2023/04/28 12:02:08;;;;;;;2.07;1.97;;;15.80;42.90;;;;;;10459045;28;20600;-70
2023/04/28 12:07:14;;;;;;;2.30;2.20;;;15.90;43.00;;;;;;10458410;28;20224;-70
2023/04/28 12:12:29;;;;;;;3.47;3.17;;;15.90;44.10;;;;;;10460457;28;20240;-70
2023/04/28 12:17:52;;;;;;;2.50;2.30;;;16.00;45.20;;;;;;10458801;28;20302;-71
2023/04/28 12:22:56;;;;;;;1.83;1.73;;;16.20;43.50;;;;;;10457617;28;20225;-72
2023/04/28 12:28:01;;;;;;;3.23;2.10;;;16.30;44.50;;;;;;10459128;28;20823;-71
2023/04/28 12:33:04;;;;;;;1.60;1.50;;;16.40;44.50;;;;;;10457324;28;20224;-70
2023/04/28 12:38:12;;;;;;;1.43;1.20;;;16.60;44.50;;;;;;10458439;28;20242;-70
2023/04/28 12:43:16;;;;;;;1.93;1.50;;;16.80;45.90;;;;;;10480455;23;20884;-70
2023/04/28 12:48:19;;;;;;;1.10;1.10;;;17.00;44.40;;;;;;10478766;28;20759;-70
2023/04/28 12:53:23;;;;;;;1.30;1.20;;;17.20;44.50;;;;;;10456913;28;20240;-73
2023/04/28 12:58:26;;;;;;;1.70;1.60;;;17.40;45.00;;;;;;10440214;28;20233;-73
2023/04/28 13:03:29;;;;;;;1.13;1.13;;;17.60;44.00;;;;;;10437995;28;20641;-73
2023/04/28 13:08:34;;;;;;;1.17;1.17;;;17.70;43.70;;;;;;10437304;28;20236;-70
2023/04/28 13:13:38;;;;;;;1.20;1.20;;;17.70;44.10;;;;;;10433706;28;20599;-73
2023/04/28 13:18:41;;;;;;;1.37;1.30;;;17.70;43.60;;;;;;10444123;28;20739;-71
2023/04/28 13:23:45;;;;;;;1.37;1.27;;;17.80;43.70;;;;;;10435757;28;20229;-70
2023/04/28 13:28:49;;;;;;;1.60;1.50;;;17.80;44.40;;;;;;10448598;28;20235;-71
2023/04/28 13:33:52;;;;;;;1.43;1.33;;;17.90;43.60;;;;;;10468288;28;20232;-70
2023/04/28 13:38:56;;;;;;;1.50;1.40;;;17.90;43.70;;;;;;10434847;28;20712;-71
2023/04/28 13:44:01;;;;;;;1.33;1.30;;;17.90;44.50;;;;;;10446004;28;20675;-71
2023/04/28 13:55:05;;;;;;;1.43;1.43;;;17.90;45.60;;;;;;10440690;28;20278;-71
2023/04/28 14:00:10;;;;;;;1.00;1.00;;;17.80;45.00;;;;;;10439012;28;20279;-71
2023/04/28 14:05:13;;;;;;;0.93;0.93;;;17.90;44.30;;;;;;10442012;28;20240;-71
2023/04/28 14:10:18;;;;;;;2.50;1.00;;;17.80;44.10;;;;;;10451648;28;20217;-71
2023/04/28 14:15:21;;;;;;;3.33;1.20;;;17.80;45.00;;;;;;10451354;28;20236;-71
2023/04/28 14:20:24;;;;;;;1.00;1.00;;;17.90;44.90;;;;;;10446571;28;20224;-71
2023/04/28 14:25:31;;;;;;;1.30;1.20;;;17.90;44.00;;;;;;10439587;28;20238;-71
2023/04/28 14:30:34;;;;;;;1.27;1.27;;;17.90;45.00;;;;;;10447759;28;20651;-71
2023/04/28 14:35:38;;;;;;;1.93;1.83;;;17.90;44.40;;;;;;10445219;28;20778;-71
2023/04/28 14:40:42;;;;;;;2.23;2.13;;;17.90;44.40;;;;;;10457488;28;20257;-71
2023/04/28 14:45:46;;;;;;;2.50;2.17;;;18.00;45.10;;;;;;10460277;28;20228;-71
2023/04/28 14:50:50;;;;;;;1.53;1.50;;;18.00;44.50;;;;;;10455580;28;20283;-71
2023/04/28 14:55:54;;;;;;;2.00;1.90;;;18.00;44.50;;;;;;10435117;28;20367;-71
2023/04/28 15:01:09;;;;;;;1.60;1.50;;;18.00;45.20;;;;;;10433588;28;20229;-71
2023/04/28 15:06:12;;;;;;;1.73;1.50;;;18.00;44.30;;;;;;10448455;28;20233;-71
2023/04/28 15:11:16;;;;;;;1.90;1.80;;;18.00;44.50;;;;;;10448061;28;20269;-71
2023/04/28 15:16:20;;;;;;;1.80;1.70;;;18.00;45.10;;;;;;10434553;28;20241;-71
2023/04/28 15:21:23;;;;;;;2.90;2.70;;;18.00;44.70;;;;;;10433412;28;20240;-71
2023/04/28 15:26:28;;;;;;;3.13;2.20;;;18.10;45.10;;;;;;10444066;28;20229;-72
2023/04/28 15:31:32;;;;;;;2.10;1.90;;;18.00;45.40;;;;;;10454127;28;20317;-71
2023/04/28 15:36:38;;;;;;;1.90;1.50;;;18.00;44.70;;;;;;10429902;28;20609;-71
2023/04/28 15:41:43;;;;;;;2.10;2.00;;;17.90;45.40;;;;;;10433003;28;20713;-72
2023/04/28 15:46:46;;;;;;;2.10;1.87;;;17.80;45.80;;;;;;10438991;28;20229;-72
2023/04/28 15:51:49;;;;;;;1.40;1.40;;;17.80;45.20;;;;;;10438367;28;20229;-71
2023/04/28 15:56:54;;;;;;;1.57;1.40;;;17.80;45.30;;;;;;10435150;28;20713;-71
2023/04/28 16:01:57;;;;;;;1.27;1.17;;;17.80;46.10;;;;;;10431534;28;20653;-71
2023/04/28 16:07:01;;;;;;;1.50;1.17;;;17.80;45.20;;;;;;10441334;28;20238;-71
2023/04/28 16:12:06;;;;;;;1.57;1.47;;;17.80;45.20;;;;;;10438722;28;20233;-71
2023/04/28 16:17:09;;;;;;;1.10;1.00;;;17.70;45.80;;;;;;10441326;28;20248;-71
2023/04/28 16:22:12;;;;;;;1.63;1.23;;;17.70;45.30;;;;;;10434391;28;20241;-71
2023/04/28 16:27:17;;;;;;;1.77;1.67;;;17.70;45.40;;;;;;10454351;28;20233;-71
2023/04/28 16:32:20;;;;;;;1.90;1.70;;;17.70;46.40;;;;;;10443207;28;20587;-71
2023/04/28 16:37:23;;;;;;;1.60;1.50;;;17.70;45.60;;;;;;10451756;28;20227;-71
2023/04/28 16:42:28;;;;;;;2.40;2.30;;;17.70;45.50;;;;;;10432862;28;20237;-71
2023/04/28 16:47:32;;;;;;;1.87;1.67;;;17.60;46.30;;;;;;10446401;28;20240;-72
2023/04/28 16:52:36;;;;;;;1.70;1.60;;;17.60;45.60;;;;;;10425691;28;20235;-71
2023/04/28 16:57:41;;;;;;;1.90;1.80;;;17.60;45.50;;;;;;10470782;28;20225;-71
2023/04/28 17:02:44;;;;;;;1.87;1.50;;;17.70;46.40;;;;;;10446417;28;20233;-71
2023/04/28 17:07:47;;;;;;;1.20;1.20;;;17.70;45.60;;;;;;10432659;28;20327;-72
2023/04/28 17:12:52;;;;;;;1.47;1.37;;;17.70;45.50;;;;;;10429370;28;20233;-71
2023/04/28 17:17:56;;;;;;;1.17;1.10;;;17.70;46.20;;;;;;10445643;28;20692;-71
2023/04/28 17:22:59;;;;;;;1.33;1.10;;;17.70;45.60;;;;;;10437900;28;20252;-72
2023/04/28 17:28:03;;;;;;;1.20;1.10;;;17.70;45.60;;;;;;10440177;28;20240;-72
2023/04/28 17:33:06;;;;;;;1.10;1.10;;;17.70;46.40;;;;;;10433872;28;20233;-72
2023/04/28 17:38:10;;;;;;;1.53;1.43;;;17.80;45.70;;;;;;10434981;28;20237;-71
2023/04/28 17:43:15;;;;;;;1.47;1.37;;;17.70;45.60;;;;;;10439194;28;20233;-72
2023/04/28 17:48:18;;;;;;;1.60;1.50;;;17.70;46.50;;;;;;10424571;28;20229;-72
2023/04/28 17:53:21;;;;;;;3.30;3.00;;;17.80;45.70;;;;;;10454020;28;20249;-72
2023/04/28 17:58:26;;;;;;;2.60;2.40;;;17.70;45.60;;;;;;10440507;28;20244;-72
2023/04/28 18:03:29;;;;;;;3.20;2.20;;;17.70;46.30;;;;;;10442889;28;20892;-72
2023/04/28 18:08:33;;;;;;;5.50;4.13;;;17.70;45.90;;;;;;10438725;28;20236;-72
2023/04/28 18:13:37;;;;;;;5.00;2.80;;;17.60;45.70;;;;;;10445591;28;20240;-72
2023/04/28 18:18:40;;;;;;;3.10;2.90;;;17.60;46.60;;;;;;10441066;28;20251;-72
2023/04/28 18:23:45;;;;;;;2.40;2.20;;;17.60;46.00;;;;;;10445851;28;20233;-73
2023/04/28 18:28:50;;;;;;;2.10;1.90;;;17.60;46.60;;;;;;10453703;28;20232;-72
2023/04/28 18:33:54;;;;;;;1.57;1.47;;;17.60;46.60;;;;;;10452858;28;20229;-72
2023/04/28 18:38:57;;;;;;;1.27;1.27;;;17.50;45.80;;;;;;10444523;28;20229;-72
2023/04/28 18:44:02;;;;;;;1.00;1.00;;;17.50;45.60;;;;;;10436053;28;20232;-72
2023/04/28 18:49:05;;;;;;;0.93;0.90;;;17.40;46.00;;;;;;10445561;28;20723;-72
2023/04/28 18:54:09;;;;;;;2.20;1.00;;;17.30;45.20;;;;;;10443368;28;20291;-72
2023/04/28 18:59:13;;;;;;;0.97;0.97;;;17.20;45.50;;;;;;10437386;28;20252;-72
2023/04/28 19:04:16;;;;;;;1.10;1.10;;;17.10;46.20;;;;;;10451247;28;20241;-72
2023/04/28 19:09:20;;;;;;;1.37;1.10;;;16.90;45.70;;;;;;10444852;28;20229;-72
2023/04/28 19:14:24;;;;;;;1.47;1.37;;;16.80;45.90;;;;;;10442626;28;20232;-72
2023/04/28 19:19:27;;;;;;;1.23;1.17;;;16.60;46.10;;;;;;10444924;28;20270;-72
2023/04/28 19:24:31;;;;;;;1.70;1.60;;;16.50;45.60;;;;;;10453745;28;20228;-72
2023/04/28 19:29:35;;;;;;;2.40;2.00;;;16.40;45.90;;;;;;10460356;28;20241;-72
2023/04/28 19:34:38;;;;;;;1.57;1.47;;;16.30;46.50;;;;;;10471827;28;20274;-72
2023/04/28 19:39:42;;;;;;;2.30;2.10;;;16.30;45.90;;;;;;10439625;28;20233;-72
2023/04/28 19:44:47;;;;;;;3.40;2.37;;;16.30;46.10;;;;;;10434951;28;20272;-72
2023/04/28 19:49:50;;;;;;;1.77;1.67;;;16.20;46.70;;;;;;10438582;28;20230;-72
2023/04/28 19:54:54;;;;;;;2.40;2.20;;;16.20;46.00;;;;;;10420529;28;20241;-72
2023/04/28 19:59:59;;;;;;;1.67;1.43;;;16.10;46.00;;;;;;10447271;28;20284;-72
2023/04/28 20:05:02;;;;;;;1.50;1.40;;;16.00;46.50;;;;;;10413947;28;20226;-72
2023/04/28 20:10:06;;;;;;;2.43;1.90;;;16.00;46.10;;;;;;10439260;28;20754;-72
2023/04/28 20:15:11;;;;;;;1.83;1.50;;;16.00;46.30;;;;;;10429522;28;20248;-72
2023/04/28 20:20:14;;;;;;;1.53;1.40;;;16.00;46.60;;;;;;10446711;28;20240;-72
2023/04/28 20:25:17;;;;;;;2.67;1.40;;;15.80;46.10;;;;;;10452775;28;20248;-72
2023/04/28 20:30:22;;;;;;;1.30;1.10;;;15.80;46.30;;;;;;10441798;28;20217;-72
2023/04/28 20:35:25;;;;;;;1.20;1.10;;;15.70;46.60;;;;;;10447010;28;20227;-72
2023/04/28 20:40:28;;;;;;;1.00;0.87;;;15.60;46.40;;;;;;10470660;28;20224;-72
2023/04/28 20:45:34;;;;;;;1.10;1.00;;;15.50;46.50;;;;;;10441388;28;20258;-72
2023/04/28 20:50:38;;;;;;;1.10;1.10;;;15.50;47.00;;;;;;10447539;28;20221;-72
2023/04/28 20:55:41;;;;;;;1.20;1.00;;;15.50;46.80;;;;;;10454438;28;20243;-72
2023/04/28 21:00:45;;;;;;;0.80;0.80;;;15.50;46.60;;;;;;10443631;28;20235;-72
2023/04/28 21:05:49;;;;;;;0.93;0.90;;;15.60;46.80;;;;;;10458950;28;20597;-72
2023/04/28 21:10:54;;;;;;;0.90;0.90;;;15.60;46.20;;;;;;10447027;28;20229;-72
2023/04/28 21:15:58;;;;;;;1.53;1.37;;;15.70;46.10;;;;;;10449412;28;20229;-72
2023/04/28 21:21:01;;;;;;;1.23;0.90;;;15.70;46.30;;;;;;10430723;28;20316;-72
2023/04/28 21:26:05;;;;;;;4.23;1.77;;;15.80;45.90;;;;;;10420947;28;20655;-72
2023/04/28 21:31:09;;;;;;;1.07;0.97;;;15.70;45.90;;;;;;10440039;28;20263;-72
2023/04/28 21:36:13;;;;;;;1.20;1.10;;;15.70;46.30;;;;;;10468010;28;20224;-72
2023/04/28 21:41:16;;;;;;;1.80;1.30;;;15.60;45.90;;;;;;10435575;28;20229;-72
2023/04/28 21:46:20;;;;;;;1.70;1.60;;;15.60;45.90;;;;;;10448555;28;20700;-72
2023/04/28 21:51:23;;;;;;;2.77;2.00;;;15.50;46.50;;;;;;10470706;28;20232;-72
2023/04/28 21:56:26;;;;;;;2.30;1.90;;;15.50;46.20;;;;;;10446180;28;20661;-72
2023/04/28 22:01:31;;;;;;;2.27;1.60;;;15.40;46.30;;;;;;10439444;28;20225;-72
2023/04/28 22:06:35;;;;;;;1.57;1.47;;;15.30;46.90;;;;;;10470323;28;20245;-72
2023/04/28 22:11:38;;;;;;;1.60;1.50;;;15.30;46.70;;;;;;10428903;28;20286;-72
2023/04/28 22:16:42;;;;;;;1.60;1.47;;;15.20;46.70;;;;;;10453259;28;20228;-72
2023/04/28 22:21:46;;;;;;;1.57;1.40;;;15.20;47.10;;;;;;10453237;28;20233;-72
2023/04/28 22:26:49;;;;;;;1.50;1.40;;;15.20;46.80;;;;;;10452935;28;20225;-72
2023/04/28 22:31:53;;;;;;;1.43;1.33;;;15.20;46.70;;;;;;10452063;22;20573;-70
2023/04/28 22:36:56;;;;;;;1.60;1.50;;;15.10;47.20;;;;;;10382927;28;20234;-70
2023/04/28 22:41:59;;;;;;;1.80;1.70;;;15.10;46.80;;;;;;10393264;28;20238;-70
2023/04/28 22:47:04;;;;;;;1.83;1.73;;;15.10;46.80;;;;;;10386562;28;20238;-71
2023/04/28 22:52:07;;;;;;;1.80;1.70;;;15.10;47.40;;;;;;10381916;28;20238;-71
2023/04/28 22:57:10;;;;;;;2.13;1.47;;;15.10;46.90;;;;;;10379112;28;20780;-70
2023/04/28 23:02:14;;;;;;;2.83;1.43;;;15.10;46.90;;;;;;10416702;28;20244;-70
2023/04/28 23:07:18;;;;;;;1.37;1.27;;;15.10;47.40;;;;;;10378226;28;20234;-71
2023/04/28 23:12:21;;;;;;;2.37;1.50;;;15.00;47.00;;;;;;10381554;28;20225;-71
2023/04/28 23:17:25;;;;;;;1.30;1.20;;;15.00;46.90;;;;;;10383686;28;20694;-71
2023/04/28 23:22:29;;;;;;;1.60;1.40;;;15.00;47.20;;;;;;10375459;28;20697;-71
2023/04/28 23:27:32;;;;;;;1.50;1.40;;;15.00;46.80;;;;;;10379520;28;20236;-71
2023/04/28 23:32:37;;;;;;;1.50;1.40;;;15.00;46.80;;;;;;10377514;28;20273;-70
2023/04/28 23:37:40;;;;;;;1.60;1.50;;;15.00;47.40;;;;;;10383945;28;20232;-70
2023/04/28 23:42:43;;;;;;;1.20;1.20;;;14.90;46.80;;;;;;10375845;28;20245;-70
2023/04/28 23:47:48;;;;;;;1.50;1.30;;;14.90;46.80;;;;;;10379408;28;20234;-70
2023/04/28 23:52:51;;;;;;;1.30;1.20;;;14.90;47.20;;;;;;10378983;28;20227;-70
2023/04/28 23:57:54;;;;;;;1.43;1.20;;;14.90;47.00;;;;;;10377844;28;20241;-70
